sensor_id;sensor_type;location;lat;lon;timestamp;P1;durP1;ratioP1;P2;durP2;ratioP2
44276;SDS011;29973;43.742;1.236;2023-12-20T00:01:33;35.15;;;20.77;;
44276;SDS011;29973;43.742;1.236;2023-12-20T00:03:58;41.95;;;23.88;;
44276;SDS011;29973;43.742;1.236;2023-12-20T00:06:24;34.65;;;19.52;;
44276;SDS011;29973;43.742;1.236;2023-12-20T00:08:50;33.70;;;19.08;;
44276;SDS011;29973;43.742;1.236;2023-12-20T00:11:15;38.40;;;21.42;;
44276;SDS011;29973;43.742;1.236;2023-12-20T00:13:41;33.15;;;19.65;;
44276;SDS011;29973;43.742;1.236;2023-12-20T00:16:07;29.13;;;17.88;;
44276;SDS011;29973;43.742;1.236;2023-12-20T00:18:32;33.55;;;20.30;;
44276;SDS011;29973;43.742;1.236;2023-12-20T00:20:58;33.67;;;18.85;;
44276;SDS011;29973;43.742;1.236;2023-12-20T00:23:23;33.10;;;18.40;;
44276;SDS011;29973;43.742;1.236;2023-12-20T00:25:49;34.08;;;18.13;;
44276;SDS011;29973;43.742;1.236;2023-12-20T00:28:15;35.47;;;19.58;;
44276;SDS011;29973;43.742;1.236;2023-12-20T00:30:40;35.00;;;19.13;;
44276;SDS011;29973;43.742;1.236;2023-12-20T00:33:06;32.38;;;18.35;;
44276;SDS011;29973;43.742;1.236;2023-12-20T00:35:32;36.55;;;20.40;;
44276;SDS011;29973;43.742;1.236;2023-12-20T00:37:58;32.17;;;18.77;;
44276;SDS011;29973;43.742;1.236;2023-12-20T00:40:24;44.88;;;21.15;;
44276;SDS011;29973;43.742;1.236;2023-12-20T00:42:50;33.55;;;20.02;;
44276;SDS011;29973;43.742;1.236;2023-12-20T00:45:15;34.95;;;19.63;;
44276;SDS011;29973;43.742;1.236;2023-12-20T00:47:41;31.98;;;19.33;;
44276;SDS011;29973;43.742;1.236;2023-12-20T00:50:07;30.63;;;18.20;;
44276;SDS011;29973;43.742;1.236;2023-12-20T00:52:33;27.00;;;17.98;;
44276;SDS011;29973;43.742;1.236;2023-12-20T00:54:59;30.42;;;17.15;;
44276;SDS011;29973;43.742;1.236;2023-12-20T00:57:24;27.90;;;18.00;;
44276;SDS011;29973;43.742;1.236;2023-12-20T00:59:50;33.22;;;17.38;;
44276;SDS011;29973;43.742;1.236;2023-12-20T01:02:16;28.33;;;19.10;;
44276;SDS011;29973;43.742;1.236;2023-12-20T01:04:41;26.92;;;17.15;;
44276;SDS011;29973;43.742;1.236;2023-12-20T01:07:07;27.67;;;16.90;;
44276;SDS011;29973;43.742;1.236;2023-12-20T01:09:33;32.00;;;18.30;;
44276;SDS011;29973;43.742;1.236;2023-12-20T01:11:59;26.45;;;17.58;;
44276;SDS011;29973;43.742;1.236;2023-12-20T01:14:24;29.17;;;17.83;;
44276;SDS011;29973;43.742;1.236;2023-12-20T01:16:50;31.92;;;18.55;;
44276;SDS011;29973;43.742;1.236;2023-12-20T01:19:16;30.77;;;18.73;;
44276;SDS011;29973;43.742;1.236;2023-12-20T01:21:41;30.48;;;18.95;;
44276;SDS011;29973;43.742;1.236;2023-12-20T01:24:07;30.70;;;18.33;;
44276;SDS011;29973;43.742;1.236;2023-12-20T01:26:32;27.15;;;17.15;;
44276;SDS011;29973;43.742;1.236;2023-12-20T01:28:58;27.95;;;17.20;;
44276;SDS011;29973;43.742;1.236;2023-12-20T01:31:24;23.65;;;16.25;;
44276;SDS011;29973;43.742;1.236;2023-12-20T01:33:49;30.42;;;17.60;;
44276;SDS011;29973;43.742;1.236;2023-12-20T01:36:15;23.52;;;15.77;;
44276;SDS011;29973;43.742;1.236;2023-12-20T01:38:41;23.92;;;15.40;;
44276;SDS011;29973;43.742;1.236;2023-12-20T01:41:07;23.10;;;15.43;;
44276;SDS011;29973;43.742;1.236;2023-12-20T01:43:32;27.27;;;15.73;;
44276;SDS011;29973;43.742;1.236;2023-12-20T01:45:58;23.65;;;15.45;;
44276;SDS011;29973;43.742;1.236;2023-12-20T01:48:24;23.23;;;14.88;;
44276;SDS011;29973;43.742;1.236;2023-12-20T01:50:51;22.90;;;14.27;;
44276;SDS011;29973;43.742;1.236;2023-12-20T01:53:17;22.80;;;13.80;;
44276;SDS011;29973;43.742;1.236;2023-12-20T01:55:45;20.45;;;13.38;;
44276;SDS011;29973;43.742;1.236;2023-12-20T01:58:12;17.60;;;13.23;;
44276;SDS011;29973;43.742;1.236;2023-12-20T02:00:39;22.35;;;13.40;;
44276;SDS011;29973;43.742;1.236;2023-12-20T02:03:05;21.15;;;12.20;;
44276;SDS011;29973;43.742;1.236;2023-12-20T02:05:31;21.67;;;13.38;;
44276;SDS011;29973;43.742;1.236;2023-12-20T02:07:59;20.67;;;14.40;;
44276;SDS011;29973;43.742;1.236;2023-12-20T02:10:25;23.17;;;15.07;;
44276;SDS011;29973;43.742;1.236;2023-12-20T02:12:52;18.63;;;11.80;;
44276;SDS011;29973;43.742;1.236;2023-12-20T02:15:17;21.42;;;13.23;;
44276;SDS011;29973;43.742;1.236;2023-12-20T02:17:43;19.67;;;12.95;;
44276;SDS011;29973;43.742;1.236;2023-12-20T02:20:10;20.30;;;13.85;;
44276;SDS011;29973;43.742;1.236;2023-12-20T02:22:36;19.67;;;13.55;;
44276;SDS011;29973;43.742;1.236;2023-12-20T02:25:01;19.30;;;12.48;;
44276;SDS011;29973;43.742;1.236;2023-12-20T02:27:27;24.08;;;14.25;;
44276;SDS011;29973;43.742;1.236;2023-12-20T02:29:54;22.02;;;14.23;;
44276;SDS011;29973;43.742;1.236;2023-12-20T02:32:21;23.15;;;14.32;;
44276;SDS011;29973;43.742;1.236;2023-12-20T02:34:48;27.00;;;14.90;;
44276;SDS011;29973;43.742;1.236;2023-12-20T02:37:14;24.13;;;15.68;;
44276;SDS011;29973;43.742;1.236;2023-12-20T02:39:39;27.88;;;15.32;;
44276;SDS011;29973;43.742;1.236;2023-12-20T02:42:05;22.55;;;14.75;;
44276;SDS011;29973;43.742;1.236;2023-12-20T02:44:31;26.50;;;16.52;;
44276;SDS011;29973;43.742;1.236;2023-12-20T02:46:56;24.45;;;15.93;;
44276;SDS011;29973;43.742;1.236;2023-12-20T02:49:22;29.88;;;16.38;;
44276;SDS011;29973;43.742;1.236;2023-12-20T02:51:48;26.10;;;17.08;;
44276;SDS011;29973;43.742;1.236;2023-12-20T02:54:13;32.55;;;17.92;;
44276;SDS011;29973;43.742;1.236;2023-12-20T02:56:39;26.48;;;16.63;;
44276;SDS011;29973;43.742;1.236;2023-12-20T02:59:05;28.92;;;18.17;;
44276;SDS011;29973;43.742;1.236;2023-12-20T03:01:31;36.35;;;19.02;;
44276;SDS011;29973;43.742;1.236;2023-12-20T03:03:57;27.95;;;17.75;;
44276;SDS011;29973;43.742;1.236;2023-12-20T03:06:23;24.17;;;17.23;;
44276;SDS011;29973;43.742;1.236;2023-12-20T03:08:49;27.10;;;17.52;;
44276;SDS011;29973;43.742;1.236;2023-12-20T03:11:15;25.90;;;17.80;;
44276;SDS011;29973;43.742;1.236;2023-12-20T03:13:40;31.55;;;16.13;;
44276;SDS011;29973;43.742;1.236;2023-12-20T03:16:12;27.02;;;16.90;;
44276;SDS011;29973;43.742;1.236;2023-12-20T03:18:38;25.00;;;16.30;;
44276;SDS011;29973;43.742;1.236;2023-12-20T03:21:04;27.05;;;18.90;;
44276;SDS011;29973;43.742;1.236;2023-12-20T03:23:30;24.52;;;17.63;;
44276;SDS011;29973;43.742;1.236;2023-12-20T03:25:58;30.20;;;18.55;;
44276;SDS011;29973;43.742;1.236;2023-12-20T03:28:24;26.77;;;16.60;;
44276;SDS011;29973;43.742;1.236;2023-12-20T03:30:51;28.20;;;18.75;;
44276;SDS011;29973;43.742;1.236;2023-12-20T03:33:17;31.50;;;17.58;;
44276;SDS011;29973;43.742;1.236;2023-12-20T03:35:42;30.75;;;19.52;;
44276;SDS011;29973;43.742;1.236;2023-12-20T03:38:08;31.73;;;18.67;;
44276;SDS011;29973;43.742;1.236;2023-12-20T03:40:34;30.40;;;19.30;;
44276;SDS011;29973;43.742;1.236;2023-12-20T03:43:00;29.58;;;17.40;;
44276;SDS011;29973;43.742;1.236;2023-12-20T03:45:26;25.70;;;15.52;;
44276;SDS011;29973;43.742;1.236;2023-12-20T03:47:51;27.80;;;16.30;;
44276;SDS011;29973;43.742;1.236;2023-12-20T03:50:20;25.95;;;15.98;;
44276;SDS011;29973;43.742;1.236;2023-12-20T03:52:49;22.90;;;14.80;;
44276;SDS011;29973;43.742;1.236;2023-12-20T03:55:15;29.17;;;15.55;;
44276;SDS011;29973;43.742;1.236;2023-12-20T03:57:40;19.20;;;13.18;;
44276;SDS011;29973;43.742;1.236;2023-12-20T04:00:09;16.48;;;11.77;;
44276;SDS011;29973;43.742;1.236;2023-12-20T04:02:42;17.65;;;11.35;;
44276;SDS011;29973;43.742;1.236;2023-12-20T04:05:08;15.50;;;11.50;;
44276;SDS011;29973;43.742;1.236;2023-12-20T04:07:35;15.50;;;11.55;;
44276;SDS011;29973;43.742;1.236;2023-12-20T04:10:01;13.75;;;9.63;;
44276;SDS011;29973;43.742;1.236;2023-12-20T04:12:28;15.55;;;10.20;;
44276;SDS011;29973;43.742;1.236;2023-12-20T04:14:54;12.77;;;8.90;;
44276;SDS011;29973;43.742;1.236;2023-12-20T04:17:20;13.60;;;9.10;;
44276;SDS011;29973;43.742;1.236;2023-12-20T04:19:48;11.35;;;8.90;;
44276;SDS011;29973;43.742;1.236;2023-12-20T04:22:14;10.98;;;8.30;;
44276;SDS011;29973;43.742;1.236;2023-12-20T04:24:39;10.27;;;8.20;;
44276;SDS011;29973;43.742;1.236;2023-12-20T04:27:07;12.93;;;8.43;;
44276;SDS011;29973;43.742;1.236;2023-12-20T04:29:33;10.90;;;8.38;;
44276;SDS011;29973;43.742;1.236;2023-12-20T04:31:58;13.85;;;8.85;;
44276;SDS011;29973;43.742;1.236;2023-12-20T04:34:24;11.95;;;8.95;;
44276;SDS011;29973;43.742;1.236;2023-12-20T04:36:50;13.07;;;8.85;;
44276;SDS011;29973;43.742;1.236;2023-12-20T04:39:16;14.25;;;8.65;;
44276;SDS011;29973;43.742;1.236;2023-12-20T04:41:42;10.55;;;7.22;;
44276;SDS011;29973;43.742;1.236;2023-12-20T04:44:07;10.48;;;7.55;;
44276;SDS011;29973;43.742;1.236;2023-12-20T04:46:33;8.52;;;6.10;;
44276;SDS011;29973;43.742;1.236;2023-12-20T04:48:58;10.40;;;7.18;;
44276;SDS011;29973;43.742;1.236;2023-12-20T04:51:24;8.07;;;5.50;;
44276;SDS011;29973;43.742;1.236;2023-12-20T04:53:50;12.63;;;6.53;;
44276;SDS011;29973;43.742;1.236;2023-12-20T04:56:15;11.25;;;6.90;;
44276;SDS011;29973;43.742;1.236;2023-12-20T04:58:42;11.00;;;7.53;;
44276;SDS011;29973;43.742;1.236;2023-12-20T05:01:08;10.20;;;7.18;;
44276;SDS011;29973;43.742;1.236;2023-12-20T05:03:34;9.55;;;6.32;;
44276;SDS011;29973;43.742;1.236;2023-12-20T05:06:00;9.10;;;7.40;;
44276;SDS011;29973;43.742;1.236;2023-12-20T05:08:25;9.15;;;7.28;;
44276;SDS011;29973;43.742;1.236;2023-12-20T05:10:53;9.82;;;7.63;;
44276;SDS011;29973;43.742;1.236;2023-12-20T05:13:19;10.52;;;7.57;;
44276;SDS011;29973;43.742;1.236;2023-12-20T05:15:45;13.98;;;7.65;;
44276;SDS011;29973;43.742;1.236;2023-12-20T05:18:11;13.45;;;7.85;;
44276;SDS011;29973;43.742;1.236;2023-12-20T05:20:38;10.68;;;8.07;;
44276;SDS011;29973;43.742;1.236;2023-12-20T05:23:04;11.95;;;8.57;;
44276;SDS011;29973;43.742;1.236;2023-12-20T05:25:29;9.75;;;7.55;;
44276;SDS011;29973;43.742;1.236;2023-12-20T05:27:55;13.27;;;7.45;;
44276;SDS011;29973;43.742;1.236;2023-12-20T05:30:21;9.20;;;6.15;;
44276;SDS011;29973;43.742;1.236;2023-12-20T05:32:47;8.00;;;5.03;;
44276;SDS011;29973;43.742;1.236;2023-12-20T05:35:12;13.35;;;7.03;;
44276;SDS011;29973;43.742;1.236;2023-12-20T05:37:38;9.77;;;6.97;;
44276;SDS011;29973;43.742;1.236;2023-12-20T05:40:04;7.13;;;5.43;;
44276;SDS011;29973;43.742;1.236;2023-12-20T05:42:30;8.45;;;6.47;;
44276;SDS011;29973;43.742;1.236;2023-12-20T05:44:56;10.48;;;6.18;;
44276;SDS011;29973;43.742;1.236;2023-12-20T05:47:21;7.80;;;6.18;;
44276;SDS011;29973;43.742;1.236;2023-12-20T05:49:47;7.05;;;6.18;;
44276;SDS011;29973;43.742;1.236;2023-12-20T05:52:13;10.80;;;4.97;;
44276;SDS011;29973;43.742;1.236;2023-12-20T05:54:38;5.50;;;4.28;;
44276;SDS011;29973;43.742;1.236;2023-12-20T05:57:04;5.72;;;4.22;;
44276;SDS011;29973;43.742;1.236;2023-12-20T05:59:30;7.70;;;5.10;;
44276;SDS011;29973;43.742;1.236;2023-12-20T06:01:56;6.70;;;4.47;;
44276;SDS011;29973;43.742;1.236;2023-12-20T06:04:21;5.75;;;4.68;;
44276;SDS011;29973;43.742;1.236;2023-12-20T06:06:47;5.18;;;4.30;;
44276;SDS011;29973;43.742;1.236;2023-12-20T06:09:12;5.00;;;3.90;;
44276;SDS011;29973;43.742;1.236;2023-12-20T06:11:40;4.43;;;4.03;;
44276;SDS011;29973;43.742;1.236;2023-12-20T06:14:05;3.38;;;2.78;;
44276;SDS011;29973;43.742;1.236;2023-12-20T06:16:31;5.60;;;3.95;;
44276;SDS011;29973;43.742;1.236;2023-12-20T06:18:57;2.63;;;1.77;;
44276;SDS011;29973;43.742;1.236;2023-12-20T06:21:22;3.60;;;3.30;;
44276;SDS011;29973;43.742;1.236;2023-12-20T06:23:48;6.15;;;2.97;;
44276;SDS011;29973;43.742;1.236;2023-12-20T06:26:14;6.63;;;3.88;;
44276;SDS011;29973;43.742;1.236;2023-12-20T06:28:39;5.22;;;3.08;;
44276;SDS011;29973;43.742;1.236;2023-12-20T06:31:05;4.75;;;3.88;;
44276;SDS011;29973;43.742;1.236;2023-12-20T06:33:30;5.20;;;4.75;;
44276;SDS011;29973;43.742;1.236;2023-12-20T06:35:56;7.32;;;4.18;;
44276;SDS011;29973;43.742;1.236;2023-12-20T06:38:22;6.60;;;4.55;;
44276;SDS011;29973;43.742;1.236;2023-12-20T06:40:48;5.60;;;5.00;;
44276;SDS011;29973;43.742;1.236;2023-12-20T06:43:14;6.32;;;5.80;;
44276;SDS011;29973;43.742;1.236;2023-12-20T06:45:40;8.57;;;5.05;;
44276;SDS011;29973;43.742;1.236;2023-12-20T06:48:06;6.47;;;5.57;;
44276;SDS011;29973;43.742;1.236;2023-12-20T06:50:32;6.82;;;5.18;;
44276;SDS011;29973;43.742;1.236;2023-12-20T06:52:57;8.43;;;5.22;;
44276;SDS011;29973;43.742;1.236;2023-12-20T06:55:23;5.07;;;4.45;;
44276;SDS011;29973;43.742;1.236;2023-12-20T06:57:49;6.95;;;4.82;;
44276;SDS011;29973;43.742;1.236;2023-12-20T07:00:14;6.80;;;4.47;;
44276;SDS011;29973;43.742;1.236;2023-12-20T07:02:40;7.25;;;4.57;;
44276;SDS011;29973;43.742;1.236;2023-12-20T07:05:06;6.85;;;5.00;;
44276;SDS011;29973;43.742;1.236;2023-12-20T07:07:32;7.53;;;6.90;;
44276;SDS011;29973;43.742;1.236;2023-12-20T07:09:58;5.95;;;4.30;;
44276;SDS011;29973;43.742;1.236;2023-12-20T07:12:23;7.82;;;4.82;;
44276;SDS011;29973;43.742;1.236;2023-12-20T07:14:49;5.60;;;5.07;;
44276;SDS011;29973;43.742;1.236;2023-12-20T07:17:15;6.20;;;4.80;;
44276;SDS011;29973;43.742;1.236;2023-12-20T07:19:41;5.70;;;4.85;;
44276;SDS011;29973;43.742;1.236;2023-12-20T07:22:07;6.32;;;5.47;;
44276;SDS011;29973;43.742;1.236;2023-12-20T07:24:33;8.82;;;4.85;;
44276;SDS011;29973;43.742;1.236;2023-12-20T07:26:59;6.07;;;5.47;;
44276;SDS011;29973;43.742;1.236;2023-12-20T07:29:25;5.28;;;4.70;;
44276;SDS011;29973;43.742;1.236;2023-12-20T07:31:52;5.82;;;5.20;;
44276;SDS011;29973;43.742;1.236;2023-12-20T07:34:18;5.55;;;4.85;;
44276;SDS011;29973;43.742;1.236;2023-12-20T07:36:45;4.60;;;3.92;;
44276;SDS011;29973;43.742;1.236;2023-12-20T07:39:11;4.85;;;4.35;;
44276;SDS011;29973;43.742;1.236;2023-12-20T07:41:36;5.97;;;4.95;;
44276;SDS011;29973;43.742;1.236;2023-12-20T07:44:02;4.15;;;3.55;;
44276;SDS011;29973;43.742;1.236;2023-12-20T07:46:29;5.65;;;4.53;;
44276;SDS011;29973;43.742;1.236;2023-12-20T07:48:55;5.40;;;4.43;;
44276;SDS011;29973;43.742;1.236;2023-12-20T07:51:20;7.32;;;4.60;;
44276;SDS011;29973;43.742;1.236;2023-12-20T07:53:46;5.60;;;5.10;;
44276;SDS011;29973;43.742;1.236;2023-12-20T07:56:15;4.50;;;3.95;;
44276;SDS011;29973;43.742;1.236;2023-12-20T07:58:42;8.63;;;4.88;;
44276;SDS011;29973;43.742;1.236;2023-12-20T08:01:08;8.68;;;4.88;;
44276;SDS011;29973;43.742;1.236;2023-12-20T08:03:33;5.13;;;4.60;;
44276;SDS011;29973;43.742;1.236;2023-12-20T08:05:59;7.00;;;4.85;;
44276;SDS011;29973;43.742;1.236;2023-12-20T08:08:25;5.82;;;5.03;;
44276;SDS011;29973;43.742;1.236;2023-12-20T08:10:51;8.30;;;5.45;;
44276;SDS011;29973;43.742;1.236;2023-12-20T08:13:16;12.48;;;5.32;;
44276;SDS011;29973;43.742;1.236;2023-12-20T08:15:42;9.23;;;5.55;;
44276;SDS011;29973;43.742;1.236;2023-12-20T08:18:08;8.75;;;5.47;;
44276;SDS011;29973;43.742;1.236;2023-12-20T08:20:34;8.80;;;5.95;;
44276;SDS011;29973;43.742;1.236;2023-12-20T08:23:00;8.70;;;6.05;;
44276;SDS011;29973;43.742;1.236;2023-12-20T08:25:26;7.65;;;5.38;;
44276;SDS011;29973;43.742;1.236;2023-12-20T08:27:52;8.38;;;6.07;;
44276;SDS011;29973;43.742;1.236;2023-12-20T08:30:18;13.43;;;6.40;;
44276;SDS011;29973;43.742;1.236;2023-12-20T08:32:46;9.73;;;6.03;;
44276;SDS011;29973;43.742;1.236;2023-12-20T08:35:13;9.20;;;5.95;;
44276;SDS011;29973;43.742;1.236;2023-12-20T08:37:38;9.13;;;5.93;;
44276;SDS011;29973;43.742;1.236;2023-12-20T08:40:04;15.85;;;6.45;;
44276;SDS011;29973;43.742;1.236;2023-12-20T08:42:30;7.95;;;4.78;;
44276;SDS011;29973;43.742;1.236;2023-12-20T08:44:57;9.20;;;5.85;;
44276;SDS011;29973;43.742;1.236;2023-12-20T08:47:25;12.15;;;5.07;;
44276;SDS011;29973;43.742;1.236;2023-12-20T08:49:52;7.85;;;5.85;;
44276;SDS011;29973;43.742;1.236;2023-12-20T08:52:21;6.63;;;4.40;;
44276;SDS011;29973;43.742;1.236;2023-12-20T08:54:48;9.15;;;4.60;;
44276;SDS011;29973;43.742;1.236;2023-12-20T08:57:16;6.07;;;4.25;;
44276;SDS011;29973;43.742;1.236;2023-12-20T08:59:44;6.13;;;4.53;;
44276;SDS011;29973;43.742;1.236;2023-12-20T09:02:10;10.45;;;4.43;;
44276;SDS011;29973;43.742;1.236;2023-12-20T09:04:35;7.85;;;3.78;;
44276;SDS011;29973;43.742;1.236;2023-12-20T09:07:01;7.28;;;4.45;;
44276;SDS011;29973;43.742;1.236;2023-12-20T09:09:26;15.27;;;3.95;;
44276;SDS011;29973;43.742;1.236;2023-12-20T09:11:52;8.75;;;3.95;;
44276;SDS011;29973;43.742;1.236;2023-12-20T09:14:18;6.65;;;3.83;;
44276;SDS011;29973;43.742;1.236;2023-12-20T09:16:44;7.20;;;5.28;;
44276;SDS011;29973;43.742;1.236;2023-12-20T09:19:09;6.68;;;3.90;;
44276;SDS011;29973;43.742;1.236;2023-12-20T09:21:35;5.97;;;3.47;;
44276;SDS011;29973;43.742;1.236;2023-12-20T09:24:01;3.95;;;3.50;;
44276;SDS011;29973;43.742;1.236;2023-12-20T09:26:26;5.45;;;2.83;;
44276;SDS011;29973;43.742;1.236;2023-12-20T09:28:52;10.90;;;3.97;;
44276;SDS011;29973;43.742;1.236;2023-12-20T09:31:17;9.63;;;3.17;;
44276;SDS011;29973;43.742;1.236;2023-12-20T09:33:43;9.15;;;3.25;;
44276;SDS011;29973;43.742;1.236;2023-12-20T09:36:09;9.43;;;3.10;;
44276;SDS011;29973;43.742;1.236;2023-12-20T09:38:34;6.53;;;2.90;;
44276;SDS011;29973;43.742;1.236;2023-12-20T09:41:00;8.73;;;3.35;;
44276;SDS011;29973;43.742;1.236;2023-12-20T09:43:29;9.98;;;3.10;;
44276;SDS011;29973;43.742;1.236;2023-12-20T09:45:55;5.03;;;3.35;;
44276;SDS011;29973;43.742;1.236;2023-12-20T09:48:25;7.30;;;3.20;;
44276;SDS011;29973;43.742;1.236;2023-12-20T09:50:52;5.22;;;3.20;;
44276;SDS011;29973;43.742;1.236;2023-12-20T09:53:18;3.53;;;2.90;;
44276;SDS011;29973;43.742;1.236;2023-12-20T09:55:46;8.45;;;3.50;;
44276;SDS011;29973;43.742;1.236;2023-12-20T09:58:11;4.18;;;3.28;;
44276;SDS011;29973;43.742;1.236;2023-12-20T10:00:37;6.72;;;3.20;;
44276;SDS011;29973;43.742;1.236;2023-12-20T10:03:03;10.55;;;3.63;;
44276;SDS011;29973;43.742;1.236;2023-12-20T10:05:31;4.93;;;4.32;;
44276;SDS011;29973;43.742;1.236;2023-12-20T10:07:58;6.93;;;3.80;;
44276;SDS011;29973;43.742;1.236;2023-12-20T10:10:25;10.65;;;2.35;;
44276;SDS011;29973;43.742;1.236;2023-12-20T10:13:06;6.88;;;4.05;;
44276;SDS011;29973;43.742;1.236;2023-12-20T10:15:35;6.40;;;3.75;;
44276;SDS011;29973;43.742;1.236;2023-12-20T10:18:02;5.55;;;2.38;;
44276;SDS011;29973;43.742;1.236;2023-12-20T10:20:29;4.28;;;2.60;;
44276;SDS011;29973;43.742;1.236;2023-12-20T10:22:56;4.40;;;2.03;;
44276;SDS011;29973;43.742;1.236;2023-12-20T10:25:22;5.50;;;2.33;;
44276;SDS011;29973;43.742;1.236;2023-12-20T10:27:49;2.97;;;2.38;;
44276;SDS011;29973;43.742;1.236;2023-12-20T10:30:15;4.53;;;2.85;;
44276;SDS011;29973;43.742;1.236;2023-12-20T10:32:41;7.03;;;3.03;;
44276;SDS011;29973;43.742;1.236;2023-12-20T10:35:08;4.63;;;1.95;;
44276;SDS011;29973;43.742;1.236;2023-12-20T10:37:37;4.70;;;2.47;;
44276;SDS011;29973;43.742;1.236;2023-12-20T10:40:03;9.10;;;3.17;;
44276;SDS011;29973;43.742;1.236;2023-12-20T10:42:31;5.25;;;2.03;;
44276;SDS011;29973;43.742;1.236;2023-12-20T10:44:59;6.00;;;1.83;;
44276;SDS011;29973;43.742;1.236;2023-12-20T10:47:25;5.97;;;2.50;;
44276;SDS011;29973;43.742;1.236;2023-12-20T10:49:52;4.30;;;1.58;;
44276;SDS011;29973;43.742;1.236;2023-12-20T10:52:18;5.03;;;1.75;;
44276;SDS011;29973;43.742;1.236;2023-12-20T10:54:47;6.38;;;1.95;;
44276;SDS011;29973;43.742;1.236;2023-12-20T10:57:13;4.72;;;1.48;;
44276;SDS011;29973;43.742;1.236;2023-12-20T10:59:41;5.05;;;2.08;;
44276;SDS011;29973;43.742;1.236;2023-12-20T11:02:10;5.80;;;1.67;;
44276;SDS011;29973;43.742;1.236;2023-12-20T11:07:38;3.30;;;1.42;;
44276;SDS011;29973;43.742;1.236;2023-12-20T11:10:21;5.05;;;1.50;;
44276;SDS011;29973;43.742;1.236;2023-12-20T11:12:57;4.82;;;1.63;;
44276;SDS011;29973;43.742;1.236;2023-12-20T11:15:34;4.97;;;1.52;;
44276;SDS011;29973;43.742;1.236;2023-12-20T11:18:03;4.68;;;1.40;;
44276;SDS011;29973;43.742;1.236;2023-12-20T11:20:41;3.83;;;1.60;;
44276;SDS011;29973;43.742;1.236;2023-12-20T11:23:07;5.88;;;1.70;;
44276;SDS011;29973;43.742;1.236;2023-12-20T11:28:13;6.20;;;1.40;;
44276;SDS011;29973;43.742;1.236;2023-12-20T11:30:46;3.38;;;1.30;;
44276;SDS011;29973;43.742;1.236;2023-12-20T11:33:15;7.30;;;1.75;;
44276;SDS011;29973;43.742;1.236;2023-12-20T11:35:41;1.60;;;1.00;;
44276;SDS011;29973;43.742;1.236;2023-12-20T11:38:10;4.63;;;1.60;;
44276;SDS011;29973;43.742;1.236;2023-12-20T11:40:38;5.47;;;1.27;;
44276;SDS011;29973;43.742;1.236;2023-12-20T11:43:05;5.15;;;1.65;;
44276;SDS011;29973;43.742;1.236;2023-12-20T11:45:31;4.55;;;1.30;;
44276;SDS011;29973;43.742;1.236;2023-12-20T11:47:57;6.45;;;1.40;;
44276;SDS011;29973;43.742;1.236;2023-12-20T11:50:23;3.58;;;1.50;;
44276;SDS011;29973;43.742;1.236;2023-12-20T11:52:50;5.57;;;1.67;;
44276;SDS011;29973;43.742;1.236;2023-12-20T11:55:17;6.53;;;1.88;;
44276;SDS011;29973;43.742;1.236;2023-12-20T11:57:43;7.55;;;1.48;;
44276;SDS011;29973;43.742;1.236;2023-12-20T12:00:09;8.57;;;2.08;;
44276;SDS011;29973;43.742;1.236;2023-12-20T12:02:36;7.90;;;1.52;;
44276;SDS011;29973;43.742;1.236;2023-12-20T12:05:01;10.10;;;2.38;;
44276;SDS011;29973;43.742;1.236;2023-12-20T12:07:30;7.25;;;1.80;;
44276;SDS011;29973;43.742;1.236;2023-12-20T12:09:55;5.45;;;1.65;;
44276;SDS011;29973;43.742;1.236;2023-12-20T12:12:21;9.43;;;2.22;;
44276;SDS011;29973;43.742;1.236;2023-12-20T12:14:47;7.40;;;1.88;;
44276;SDS011;29973;43.742;1.236;2023-12-20T12:17:14;5.07;;;2.22;;
44276;SDS011;29973;43.742;1.236;2023-12-20T12:19:42;8.55;;;2.20;;
44276;SDS011;29973;43.742;1.236;2023-12-20T12:22:09;7.53;;;1.77;;
44276;SDS011;29973;43.742;1.236;2023-12-20T12:24:42;6.30;;;1.75;;
44276;SDS011;29973;43.742;1.236;2023-12-20T12:27:09;5.80;;;1.93;;
44276;SDS011;29973;43.742;1.236;2023-12-20T12:29:35;9.52;;;2.20;;
44276;SDS011;29973;43.742;1.236;2023-12-20T12:32:05;10.73;;;2.05;;
44276;SDS011;29973;43.742;1.236;2023-12-20T12:34:32;6.60;;;2.43;;
44276;SDS011;29973;43.742;1.236;2023-12-20T12:36:59;6.53;;;1.40;;
44276;SDS011;29973;43.742;1.236;2023-12-20T12:39:25;5.93;;;1.95;;
44276;SDS011;29973;43.742;1.236;2023-12-20T12:41:51;6.95;;;1.80;;
44276;SDS011;29973;43.742;1.236;2023-12-20T12:44:17;3.80;;;1.00;;
44276;SDS011;29973;43.742;1.236;2023-12-20T12:46:45;5.05;;;1.50;;
44276;SDS011;29973;43.742;1.236;2023-12-20T12:49:12;4.90;;;1.08;;
44276;SDS011;29973;43.742;1.236;2023-12-20T12:51:38;6.53;;;1.50;;
44276;SDS011;29973;43.742;1.236;2023-12-20T12:54:04;10.52;;;2.25;;
44276;SDS011;29973;43.742;1.236;2023-12-20T12:56:29;6.13;;;1.40;;
44276;SDS011;29973;43.742;1.236;2023-12-20T12:58:55;5.55;;;2.10;;
44276;SDS011;29973;43.742;1.236;2023-12-20T13:01:21;7.20;;;2.20;;
44276;SDS011;29973;43.742;1.236;2023-12-20T13:03:47;4.20;;;2.30;;
44276;SDS011;29973;43.742;1.236;2023-12-20T13:06:12;9.30;;;1.75;;
44276;SDS011;29973;43.742;1.236;2023-12-20T13:08:38;11.45;;;2.38;;
44276;SDS011;29973;43.742;1.236;2023-12-20T13:11:04;3.95;;;1.90;;
44276;SDS011;29973;43.742;1.236;2023-12-20T13:13:30;6.78;;;1.45;;
44276;SDS011;29973;43.742;1.236;2023-12-20T13:15:56;10.57;;;2.15;;
44276;SDS011;29973;43.742;1.236;2023-12-20T13:18:22;9.43;;;1.95;;
44276;SDS011;29973;43.742;1.236;2023-12-20T13:20:48;7.43;;;1.98;;
44276;SDS011;29973;43.742;1.236;2023-12-20T13:23:14;5.43;;;1.88;;
44276;SDS011;29973;43.742;1.236;2023-12-20T13:25:41;8.63;;;2.03;;
44276;SDS011;29973;43.742;1.236;2023-12-20T13:28:07;10.60;;;1.95;;
44276;SDS011;29973;43.742;1.236;2023-12-20T13:30:33;6.70;;;1.63;;
44276;SDS011;29973;43.742;1.236;2023-12-20T13:32:59;6.88;;;1.77;;
44276;SDS011;29973;43.742;1.236;2023-12-20T13:35:25;9.48;;;1.63;;
44276;SDS011;29973;43.742;1.236;2023-12-20T13:37:50;9.90;;;2.10;;
44276;SDS011;29973;43.742;1.236;2023-12-20T13:40:16;6.07;;;1.90;;
44276;SDS011;29973;43.742;1.236;2023-12-20T13:42:42;9.93;;;2.10;;
44276;SDS011;29973;43.742;1.236;2023-12-20T13:45:08;10.32;;;2.20;;
44276;SDS011;29973;43.742;1.236;2023-12-20T13:47:34;9.18;;;2.03;;
44276;SDS011;29973;43.742;1.236;2023-12-20T13:50:00;11.25;;;1.90;;
44276;SDS011;29973;43.742;1.236;2023-12-20T13:52:27;12.38;;;2.17;;
44276;SDS011;29973;43.742;1.236;2023-12-20T13:54:52;6.55;;;1.52;;
44276;SDS011;29973;43.742;1.236;2023-12-20T13:57:18;8.20;;;1.67;;
44276;SDS011;29973;43.742;1.236;2023-12-20T13:59:44;6.68;;;1.77;;
44276;SDS011;29973;43.742;1.236;2023-12-20T14:02:10;4.20;;;1.70;;
44276;SDS011;29973;43.742;1.236;2023-12-20T14:04:35;10.30;;;1.75;;
44276;SDS011;29973;43.742;1.236;2023-12-20T14:07:01;3.90;;;1.98;;
44276;SDS011;29973;43.742;1.236;2023-12-20T14:09:27;5.60;;;2.13;;
44276;SDS011;29973;43.742;1.236;2023-12-20T14:11:53;10.27;;;1.90;;
44276;SDS011;29973;43.742;1.236;2023-12-20T14:14:19;8.13;;;1.85;;
44276;SDS011;29973;43.742;1.236;2023-12-20T14:16:45;7.65;;;1.90;;
44276;SDS011;29973;43.742;1.236;2023-12-20T14:19:11;7.38;;;1.80;;
44276;SDS011;29973;43.742;1.236;2023-12-20T14:21:37;6.72;;;1.63;;
44276;SDS011;29973;43.742;1.236;2023-12-20T14:24:03;8.73;;;2.00;;
44276;SDS011;29973;43.742;1.236;2023-12-20T14:26:29;10.27;;;1.92;;
44276;SDS011;29973;43.742;1.236;2023-12-20T14:28:55;6.90;;;2.28;;
44276;SDS011;29973;43.742;1.236;2023-12-20T14:31:21;9.30;;;2.65;;
44276;SDS011;29973;43.742;1.236;2023-12-20T14:33:49;9.88;;;2.70;;
44276;SDS011;29973;43.742;1.236;2023-12-20T14:36:15;4.53;;;2.05;;
44276;SDS011;29973;43.742;1.236;2023-12-20T14:38:43;6.90;;;2.00;;